Time;durP1;ratioP1;P1;durP2;ratioP2;P2;SDS_P1;SDS_P2;PMS_P1;PMS_P2;Temp;Humidity;BMP_temperature;BMP_pressure;BME280_temperature;BME280_humidity;BME280_pressure;Samples;Min_cycle;Max_cycle;Signal;HPM_P1;HPM_P2
2022/09/20 00:00:38;;;;;;;1.67;1.20;;;9.70;78.10;;;;;;4996396;28;20095;-60
2022/09/20 00:03:04;;;;;;;1.55;1.35;;;9.70;78.30;;;;;;4996725;28;20038;-61
2022/09/20 00:05:37;;;;;;;1.48;1.23;;;9.60;78.30;;;;;;4998079;28;20042;-60
2022/09/20 00:08:10;;;;;;;2.15;1.42;;;9.60;78.70;;;;;;4996717;28;20093;-61
2022/09/20 00:10:38;;;;;;;1.92;1.40;;;9.60;78.90;;;;;;4991878;28;20034;-60
2022/09/20 00:13:05;;;;;;;2.67;1.27;;;9.60;78.70;;;;;;4988095;28;20742;-59
2022/09/20 00:15:31;;;;;;;2.00;1.52;;;9.60;78.50;;;;;;4975088;28;20042;-60
2022/09/20 00:17:57;;;;;;;2.30;1.30;;;9.50;78.30;;;;;;4975346;28;20030;-59
2022/09/20 00:20:23;;;;;;;2.20;1.30;;;9.50;78.40;;;;;;4975822;28;20042;-60
2022/09/20 00:22:49;;;;;;;1.55;1.13;;;9.50;78.40;;;;;;4992386;28;20544;-59
2022/09/20 00:25:19;;;;;;;1.55;0.88;;;9.50;78.00;;;;;;4994949;28;20073;-58
2022/09/20 00:27:45;;;;;;;1.90;1.00;;;9.40;78.00;;;;;;4994811;28;20080;-58
2022/09/20 00:30:11;;;;;;;1.80;1.10;;;9.40;77.80;;;;;;4981039;28;20141;-58
2022/09/20 00:32:37;;;;;;;2.90;1.10;;;9.30;77.90;;;;;;4973866;28;20041;-60
2022/09/20 00:35:06;;;;;;;2.13;1.13;;;9.30;78.20;;;;;;4974426;28;20034;-60
2022/09/20 00:37:33;;;;;;;1.98;1.10;;;9.20;78.50;;;;;;4975975;28;20042;-59
2022/09/20 00:39:58;;;;;;;4.95;1.30;;;9.20;78.40;;;;;;4974198;28;20482;-59
2022/09/20 00:42:28;;;;;;;2.53;1.00;;;9.20;78.20;;;;;;4989388;28;20061;-59
2022/09/20 00:45:03;;;;;;;2.85;1.10;;;9.10;78.10;;;;;;4992662;28;20069;-59
2022/09/20 00:47:48;;;;;;;2.45;1.20;;;9.10;78.20;;;;;;4995083;28;20042;-59
2022/09/20 00:50:29;;;;;;;2.30;1.08;;;9.00;78.70;;;;;;4995037;28;20432;-59
2022/09/20 00:53:19;;;;;;;1.88;1.20;;;9.00;78.60;;;;;;4993649;28;20366;-58
2022/09/20 00:56:00;;;;;;;2.00;1.20;;;8.90;78.70;;;;;;4992197;28;20033;-58
2022/09/20 00:58:28;;;;;;;1.60;1.05;;;8.90;79.20;;;;;;4994631;28;20485;-59
2022/09/20 01:00:56;;;;;;;1.83;1.33;;;8.80;79.30;;;;;;4997748;28;20114;-60
2022/09/20 01:03:26;;;;;;;1.00;0.80;;;8.80;79.60;;;;;;4993065;28;20038;-61
2022/09/20 01:05:53;;;;;;;1.80;1.10;;;8.80;79.70;;;;;;4992338;28;20501;-60
2022/09/20 01:08:23;;;;;;;2.22;1.10;;;8.80;79.40;;;;;;4993524;28;20046;-60
2022/09/20 01:10:49;;;;;;;1.85;1.08;;;8.80;80.10;;;;;;4991891;28;20418;-61
2022/09/20 01:13:14;;;;;;;1.40;0.93;;;8.80;79.10;;;;;;4999221;28;20040;-59
2022/09/20 01:15:43;;;;;;;1.27;1.13;;;8.80;78.90;;;;;;5000138;28;20410;-60
2022/09/20 01:18:09;;;;;;;1.88;1.00;;;8.80;78.90;;;;;;4997975;28;20050;-60
2022/09/20 01:20:39;;;;;;;1.30;1.10;;;8.80;78.90;;;;;;4995809;28;20034;-58
2022/09/20 01:23:23;;;;;;;2.17;1.10;;;8.70;79.10;;;;;;4996975;28;20112;-60
2022/09/20 01:26:20;;;;;;;1.87;0.90;;;8.70;79.80;;;;;;4998056;28;20069;-59
2022/09/20 01:28:47;;;;;;;1.60;1.10;;;8.70;79.80;;;;;;4997727;28;20292;-59
2022/09/20 01:31:30;;;;;;;3.45;1.30;;;8.60;79.40;;;;;;4998594;28;20534;-58
2022/09/20 01:34:03;;;;;;;1.08;0.93;;;8.60;80.10;;;;;;4997078;28;20784;-59
2022/09/20 01:36:32;;;;;;;2.13;1.25;;;8.60;80.30;;;;;;4998572;28;20046;-60
2022/09/20 01:39:35;;;;;;;2.08;1.10;;;8.60;80.50;;;;;;4994599;28;20033;-58
2022/09/20 01:42:10;;;;;;;1.90;1.17;;;8.70;81.20;;;;;;4998022;28;20129;-59
2022/09/20 01:45:11;;;;;;;1.88;0.82;;;8.70;80.90;;;;;;4994453;28;20656;-58
2022/09/20 01:48:10;;;;;;;3.70;1.10;;;8.70;81.00;;;;;;5000160;28;20062;-59
2022/09/20 01:50:50;;;;;;;1.10;0.90;;;8.80;81.30;;;;;;4995570;28;20038;-60
2022/09/20 01:53:25;;;;;;;2.17;1.42;;;8.80;81.40;;;;;;4997203;28;20030;-60
2022/09/20 01:56:04;;;;;;;1.75;1.17;;;8.90;81.40;;;;;;4994466;28;20035;-58
2022/09/20 01:59:13;;;;;;;1.90;1.20;;;8.90;81.30;;;;;;4997309;28;20092;-60
2022/09/20 02:02:00;;;;;;;0.93;0.90;;;9.00;82.00;;;;;;4995528;28;20076;-59
2022/09/20 02:04:43;;;;;;;1.67;1.08;;;9.00;81.40;;;;;;4995803;28;20053;-60
2022/09/20 02:07:37;;;;;;;1.77;1.00;;;9.10;81.50;;;;;;4996622;28;20713;-59
2022/09/20 02:10:15;;;;;;;1.67;1.40;;;9.10;81.70;;;;;;4995782;28;20057;-58
2022/09/20 02:13:02;;;;;;;1.45;0.98;;;9.20;81.30;;;;;;4994680;28;20057;-60
2022/09/20 02:15:47;;;;;;;2.03;1.10;;;9.20;82.10;;;;;;4997718;28;20498;-61
2022/09/20 02:18:21;;;;;;;2.47;1.30;;;9.30;82.00;;;;;;4997335;28;20041;-61
2022/09/20 02:21:04;;;;;;;1.95;1.10;;;9.20;81.30;;;;;;4996797;28;21547;-59
2022/09/20 02:23:37;;;;;;;1.85;1.23;;;9.30;81.90;;;;;;4996143;28;20042;-59
2022/09/20 02:26:39;;;;;;;2.20;1.30;;;9.30;81.60;;;;;;5011207;28;21917;-60
2022/09/20 02:29:22;;;;;;;1.90;1.20;;;9.40;82.10;;;;;;4996615;28;20056;-59
2022/09/20 02:31:48;;;;;;;4.15;1.45;;;9.40;81.60;;;;;;4996309;28;20030;-60
2022/09/20 02:35:04;;;;;;;2.10;1.30;;;9.50;81.50;;;;;;4995690;28;20286;-60
2022/09/20 02:37:44;;;;;;;1.70;1.27;;;9.50;82.20;;;;;;5015103;28;20041;-60
2022/09/20 02:40:15;;;;;;;2.85;1.25;;;9.60;81.80;;;;;;4994611;28;20530;-59
2022/09/20 02:42:56;;;;;;;4.00;1.30;;;9.60;81.30;;;;;;4997249;28;20048;-59
2022/09/20 02:45:35;;;;;;;3.80;1.17;;;9.60;81.20;;;;;;4997277;28;20501;-59
2022/09/20 02:48:03;;;;;;;1.13;1.02;;;9.60;81.20;;;;;;4994043;28;20038;-60
2022/09/20 02:50:55;;;;;;;1.90;1.20;;;9.60;81.20;;;;;;4994450;28;20046;-59
2022/09/20 02:53:39;;;;;;;1.77;1.15;;;9.50;81.90;;;;;;4995125;28;20045;-61
2022/09/20 02:56:17;;;;;;;2.08;1.30;;;9.60;82.00;;;;;;4998041;28;20025;-59
2022/09/20 02:59:10;;;;;;;2.97;1.20;;;9.50;81.90;;;;;;4999099;28;20038;-58
2022/09/20 03:01:55;;;;;;;1.50;1.10;;;9.50;81.90;;;;;;4997313;28;20121;-59
2022/09/20 03:04:29;;;;;;;3.25;1.30;;;9.50;82.00;;;;;;4998149;28;20132;-60
2022/09/20 03:07:24;;;;;;;3.42;1.20;;;9.50;82.00;;;;;;4997673;28;20801;-59
2022/09/20 03:10:28;;;;;;;2.10;1.00;;;9.60;82.50;;;;;;4999347;28;20121;-61
2022/09/20 03:13:10;;;;;;;2.65;1.20;;;9.60;82.30;;;;;;4981181;28;20038;-61
2022/09/20 03:16:00;;;;;;;1.52;1.08;;;9.60;82.20;;;;;;4977083;28;20041;-60
2022/09/20 03:19:05;;;;;;;2.25;1.20;;;9.50;82.40;;;;;;4979488;28;20085;-59
2022/09/20 03:21:56;;;;;;;2.13;1.15;;;9.60;82.70;;;;;;4980570;28;20048;-59
2022/09/20 03:24:40;;;;;;;2.35;1.17;;;9.50;82.70;;;;;;4977840;28;20042;-60
2022/09/20 03:27:42;;;;;;;1.92;1.30;;;9.50;82.90;;;;;;4977803;28;20034;-60
2022/09/20 03:30:40;;;;;;;2.70;1.40;;;9.50;83.00;;;;;;4979540;28;21711;-58
2022/09/20 03:33:37;;;;;;;1.65;1.45;;;9.50;82.90;;;;;;4978354;28;20031;-60
2022/09/20 03:36:03;;;;;;;3.97;1.30;;;9.50;82.70;;;;;;4979406;28;20463;-59
2022/09/20 03:38:42;;;;;;;3.45;1.10;;;9.60;82.40;;;;;;4979836;28;20045;-60
2022/09/20 03:41:27;;;;;;;1.95;1.20;;;9.50;82.60;;;;;;4979523;28;20403;-60
2022/09/20 03:43:56;;;;;;;2.55;1.20;;;9.50;82.60;;;;;;4976561;28;20042;-60
2022/09/20 03:46:26;;;;;;;3.55;1.30;;;9.60;82.60;;;;;;4978244;28;20073;-59
2022/09/20 03:49:18;;;;;;;5.78;1.20;;;9.60;82.60;;;;;;4997773;28;20039;-58
2022/09/20 03:51:53;;;;;;;2.35;1.20;;;9.60;82.60;;;;;;4998389;28;20297;-59
2022/09/20 03:55:12;;;;;;;1.42;1.20;;;9.60;82.60;;;;;;4999192;28;20109;-59
2022/09/20 03:58:06;;;;;;;4.47;1.88;;;9.60;83.10;;;;;;4966443;28;20507;-58
2022/09/20 04:00:32;;;;;;;2.70;1.60;;;9.60;82.70;;;;;;4975006;28;20513;-58
2022/09/20 04:03:36;;;;;;;2.53;1.42;;;9.60;82.30;;;;;;4976634;28;20034;-59
2022/09/20 04:06:37;;;;;;;3.08;1.10;;;9.70;82.90;;;;;;4976293;28;20383;-59
2022/09/20 04:09:30;;;;;;;2.65;1.40;;;9.70;82.90;;;;;;4994328;28;20177;-60
2022/09/20 04:12:21;;;;;;;2.97;1.60;;;9.80;82.90;;;;;;4992712;28;20030;-59
2022/09/20 04:15:16;;;;;;;3.47;1.60;;;9.80;82.40;;;;;;4995280;28;20508;-58
2022/09/20 04:18:02;;;;;;;2.65;1.60;;;9.90;82.50;;;;;;5008653;28;20062;-60
2022/09/20 04:20:38;;;;;;;4.43;1.60;;;9.90;82.30;;;;;;4995540;28;20192;-58
2022/09/20 04:23:38;;;;;;;2.75;1.63;;;10.00;82.30;;;;;;4995095;28;20045;-57
2022/09/20 04:26:04;;;;;;;6.10;1.73;;;10.00;82.10;;;;;;4991161;28;20046;-60
2022/09/20 04:28:42;;;;;;;2.95;1.80;;;10.00;81.70;;;;;;4995204;28;20537;-59
2022/09/20 04:31:39;;;;;;;3.45;1.88;;;10.00;81.60;;;;;;4994749;28;20068;-61
2022/09/20 04:34:17;;;;;;;3.10;1.60;;;10.00;81.70;;;;;;4996663;28;20034;-58
2022/09/20 04:37:03;;;;;;;4.40;1.60;;;10.00;81.50;;;;;;4995866;28;20045;-60
2022/09/20 04:39:48;;;;;;;3.47;1.50;;;10.00;81.80;;;;;;4996794;28;20052;-58
2022/09/20 04:42:19;;;;;;;7.47;1.50;;;10.00;81.70;;;;;;4996163;28;20502;-59
2022/09/20 04:45:06;;;;;;;3.75;2.30;;;10.00;81.50;;;;;;4993835;28;20037;-59
2022/09/20 04:47:47;;;;;;;6.13;3.22;;;10.00;82.00;;;;;;4995688;28;20061;-60
2022/09/20 04:50:44;;;;;;;5.47;3.33;;;10.00;81.90;;;;;;4994957;28;20040;-60
2022/09/20 04:53:28;;;;;;;5.53;3.00;;;10.00;82.00;;;;;;4994499;28;20069;-59
2022/09/20 04:56:20;;;;;;;4.78;2.42;;;9.90;81.60;;;;;;4996177;28;20494;-60
2022/09/20 04:59:09;;;;;;;4.30;3.22;;;9.90;82.00;;;;;;4994461;28;20330;-58
2022/09/20 05:02:11;;;;;;;4.50;2.53;;;10.00;82.00;;;;;;4995922;28;20034;-60
2022/09/20 05:04:58;;;;;;;4.60;3.17;;;9.90;81.90;;;;;;4993368;28;20041;-60
2022/09/20 05:07:53;;;;;;;5.50;3.30;;;9.90;81.90;;;;;;4995397;28;20502;-58
2022/09/20 05:10:37;;;;;;;5.60;2.90;;;9.90;82.00;;;;;;4996905;28;20069;-59
2022/09/20 05:13:37;;;;;;;3.22;1.88;;;9.90;81.90;;;;;;4994193;28;20108;-59
2022/09/20 05:16:12;;;;;;;3.45;1.90;;;9.90;82.00;;;;;;4996302;28;20481;-59
2022/09/20 05:18:43;;;;;;;3.78;2.40;;;9.90;81.90;;;;;;4994467;28;20044;-59
2022/09/20 05:21:36;;;;;;;8.57;2.92;;;10.00;81.80;;;;;;4994744;28;20030;-58
2022/09/20 05:24:23;;;;;;;6.22;2.65;;;10.00;82.20;;;;;;4996756;28;20037;-60
2022/09/20 05:27:15;;;;;;;2.65;2.00;;;10.00;82.00;;;;;;4996768;28;20402;-59
2022/09/20 05:29:58;;;;;;;3.42;2.20;;;10.00;81.90;;;;;;4996676;28;20038;-59
2022/09/20 05:32:44;;;;;;;5.68;2.10;;;10.10;81.70;;;;;;4994892;28;20041;-59
2022/09/20 05:35:24;;;;;;;3.85;1.90;;;10.10;81.70;;;;;;4988272;28;20061;-60
2022/09/20 05:38:27;;;;;;;2.92;1.70;;;10.10;81.40;;;;;;4977165;28;20031;-60
2022/09/20 05:40:52;;;;;;;5.90;1.80;;;10.10;81.40;;;;;;4981008;28;20041;-58
2022/09/20 05:43:29;;;;;;;6.90;1.80;;;10.10;81.00;;;;;;4995474;28;20026;-58
2022/09/20 05:46:07;;;;;;;4.22;1.65;;;10.10;81.20;;;;;;4995358;28;20037;-59
2022/09/20 05:48:39;;;;;;;2.90;1.50;;;10.10;81.30;;;;;;4995728;28;20045;-58
2022/09/20 05:51:23;;;;;;;2.63;1.50;;;10.10;81.20;;;;;;4995598;28;20113;-57
2022/09/20 05:54:26;;;;;;;2.73;1.40;;;10.10;81.50;;;;;;4996476;28;20045;-59
2022/09/20 05:57:25;;;;;;;4.10;1.40;;;10.10;81.60;;;;;;4997039;28;20034;-61
2022/09/20 06:00:12;;;;;;;4.10;1.65;;;10.10;81.50;;;;;;4999359;28;20033;-59
2022/09/20 06:03:38;;;;;;;7.07;1.92;;;10.10;81.40;;;;;;4998345;28;20030;-59
2022/09/20 06:06:20;;;;;;;6.10;1.80;;;10.10;81.90;;;;;;5014554;28;20439;-59
2022/09/20 06:08:57;;;;;;;4.00;1.60;;;10.10;81.50;;;;;;5016686;28;20060;-61
2022/09/20 06:11:50;;;;;;;2.97;1.30;;;10.10;81.40;;;;;;4999874;28;20034;-58
2022/09/20 06:14:45;;;;;;;2.42;1.50;;;10.10;81.60;;;;;;5000605;28;20019;-59
2022/09/20 06:17:15;;;;;;;5.00;2.10;;;10.10;81.60;;;;;;5000446;28;20106;-57
2022/09/20 06:19:56;;;;;;;6.18;2.22;;;10.20;81.40;;;;;;4998796;28;20096;-61
2022/09/20 06:22:24;;;;;;;5.93;2.00;;;10.20;81.40;;;;;;4999839;28;20069;-61
2022/09/20 06:25:08;;;;;;;2.72;1.70;;;10.20;81.50;;;;;;4979682;28;20100;-60
2022/09/20 06:27:57;;;;;;;2.78;1.48;;;10.20;81.70;;;;;;4980584;28;20046;-60
2022/09/20 06:30:32;;;;;;;3.80;1.65;;;10.30;81.70;;;;;;4980635;28;20042;-59
2022/09/20 06:33:19;;;;;;;;;;;10.40;81.40;;;;;;4986186;28;20127;-59
2022/09/20 06:35:53;;;;;;;4.53;1.40;;;10.40;81.50;;;;;;4999134;28;19913;-61
2022/09/20 06:41:27;;;;;;;3.22;1.65;;;10.50;81.10;;;;;;4999417;28;20042;-60
2022/09/20 06:44:04;;;;;;;3.25;1.60;;;10.50;81.00;;;;;;4987066;28;20288;-59
2022/09/20 06:46:33;;;;;;;19.20;10.30;;;10.60;81.20;;;;;;4979131;28;20065;-61
2022/09/20 06:48:58;;;;;;;13.75;6.30;;;10.60;81.20;;;;;;4979456;28;20034;-58
2022/09/20 06:51:27;;;;;;;9.60;4.28;;;10.70;81.30;;;;;;4979930;28;20026;-58
2022/09/20 06:53:55;;;;;;;5.45;2.20;;;10.70;81.40;;;;;;4978643;28;20471;-59
2022/09/20 06:56:28;;;;;;;5.43;2.08;;;10.70;81.20;;;;;;4977078;28;20042;-59
2022/09/20 06:58:54;;;;;;;3.53;1.63;;;10.70;81.30;;;;;;4978055;28;20039;-59
2022/09/20 07:01:20;;;;;;;3.50;1.92;;;10.80;81.30;;;;;;4977779;28;20045;-60
2022/09/20 07:03:46;;;;;;;6.95;2.03;;;10.80;81.20;;;;;;4979186;28;20282;-59
2022/09/20 07:06:12;;;;;;;2.95;1.80;;;10.80;81.30;;;;;;4978098;28;20027;-60
2022/09/20 07:08:38;;;;;;;2.90;1.67;;;10.80;81.20;;;;;;4978781;28;20033;-60
2022/09/20 07:11:15;;;;;;;3.80;1.42;;;10.80;80.90;;;;;;4978509;28;20043;-59
2022/09/20 07:13:42;;;;;;;4.20;1.40;;;10.80;80.60;;;;;;4978315;28;20070;-61
2022/09/20 07:16:11;;;;;;;4.57;1.70;;;10.70;80.50;;;;;;4979341;28;20030;-60
2022/09/20 07:18:37;;;;;;;4.65;1.63;;;10.70;80.70;;;;;;4978834;28;20053;-59
2022/09/20 07:21:05;;;;;;;7.65;1.77;;;10.70;81.00;;;;;;4979610;28;20038;-60
2022/09/20 07:23:30;;;;;;;3.95;1.80;;;10.70;81.10;;;;;;4977940;28;20046;-60
2022/09/20 07:25:59;;;;;;;5.28;1.77;;;10.70;81.30;;;;;;4979972;28;20585;-58
2022/09/20 07:28:30;;;;;;;4.80;1.90;;;10.70;81.20;;;;;;4975831;28;20042;-59
2022/09/20 07:30:56;;;;;;;7.47;1.70;;;10.80;81.40;;;;;;4978537;28;20046;-57
2022/09/20 07:33:23;;;;;;;5.28;1.80;;;10.80;81.70;;;;;;4977103;28;20045;-60
2022/09/20 07:35:53;;;;;;;2.63;1.50;;;10.80;81.80;;;;;;4978360;28;20464;-59
2022/09/20 07:38:20;;;;;;;3.75;1.75;;;10.90;81.80;;;;;;4977840;28;20041;-61
2022/09/20 07:40:54;;;;;;;5.63;1.45;;;11.00;81.90;;;;;;4977918;28;20034;-59
2022/09/20 07:43:21;;;;;;;5.00;1.70;;;11.10;81.90;;;;;;4976758;28;20067;-61
2022/09/20 07:45:53;;;;;;;4.45;1.50;;;11.10;81.70;;;;;;4978465;28;20680;-60
2022/09/20 07:48:19;;;;;;;5.20;1.75;;;11.20;81.70;;;;;;4976833;28;20496;-61
2022/09/20 07:51:01;;;;;;;3.17;1.70;;;11.30;81.60;;;;;;4977412;28;20554;-59
2022/09/20 07:53:27;;;;;;;5.53;2.20;;;11.40;81.30;;;;;;4976672;28;20137;-59
2022/09/20 07:56:00;;;;;;;3.67;1.60;;;11.50;81.10;;;;;;4977726;28;20037;-60
2022/09/20 07:58:27;;;;;;;3.03;1.50;;;11.50;80.80;;;;;;4977098;28;20042;-56
2022/09/20 08:00:55;;;;;;;7.43;1.75;;;11.60;80.60;;;;;;4996719;28;20034;-59
2022/09/20 08:03:21;;;;;;;3.70;1.52;;;11.60;80.10;;;;;;4991464;28;20125;-59
2022/09/20 08:05:49;;;;;;;4.38;1.83;;;11.70;79.90;;;;;;4997592;28;20045;-59
2022/09/20 08:08:18;;;;;;;5.20;1.80;;;11.70;79.60;;;;;;4996891;28;20037;-60
2022/09/20 08:10:44;;;;;;;4.18;1.90;;;11.70;79.40;;;;;;4996218;28;20532;-60
2022/09/20 08:13:11;;;;;;;5.53;1.80;;;11.70;79.50;;;;;;4996534;28;20509;-59
2022/09/20 08:15:37;;;;;;;4.43;2.08;;;11.80;79.50;;;;;;4998901;28;20999;-59
2022/09/20 08:18:03;;;;;;;6.47;2.03;;;11.80;79.10;;;;;;4998407;28;20077;-60
2022/09/20 08:20:29;;;;;;;3.65;2.33;;;11.90;79.30;;;;;;4996179;28;20050;-59
2022/09/20 08:22:57;;;;;;;4.85;2.80;;;11.90;79.30;;;;;;4997176;28;20612;-58
2022/09/20 08:25:23;;;;;;;6.90;2.30;;;12.00;79.30;;;;;;4998370;28;20259;-59
2022/09/20 08:27:53;;;;;;;3.42;2.33;;;12.00;79.10;;;;;;4998706;28;20060;-57
2022/09/20 08:30:18;;;;;;;3.90;2.38;;;12.10;78.70;;;;;;4997094;28;20034;-62
2022/09/20 08:32:44;;;;;;;5.20;2.17;;;12.10;78.90;;;;;;4997461;28;20037;-58
2022/09/20 08:35:10;;;;;;;6.20;2.22;;;12.20;78.60;;;;;;4997078;28;20184;-59
2022/09/20 08:37:36;;;;;;;7.28;2.42;;;12.20;78.30;;;;;;4998811;28;20030;-60
2022/09/20 08:40:03;;;;;;;6.13;2.45;;;12.30;78.20;;;;;;4996728;28;20041;-60
2022/09/20 08:42:35;;;;;;;3.80;2.25;;;12.30;78.20;;;;;;4996886;28;20057;-60
2022/09/20 08:45:10;;;;;;;5.85;1.90;;;12.40;78.00;;;;;;4998281;28;20062;-60
2022/09/20 08:47:44;;;;;;;3.88;1.90;;;12.40;77.80;;;;;;4997506;28;20511;-59
2022/09/20 08:50:14;;;;;;;3.90;2.15;;;12.50;77.70;;;;;;4996500;28;20860;-58
2022/09/20 08:52:45;;;;;;;4.50;2.30;;;12.50;77.80;;;;;;4997530;28;20611;-60
2022/09/20 08:55:18;;;;;;;3.55;2.75;;;12.60;77.50;;;;;;4996866;28;20411;-60
2022/09/20 08:57:51;;;;;;;5.38;3.00;;;12.60;77.70;;;;;;4999590;28;20080;-59
2022/09/20 09:00:25;;;;;;;3.90;2.55;;;12.60;76.50;;;;;;4999005;28;20528;-59
2022/09/20 09:02:56;;;;;;;4.15;2.60;;;12.60;77.10;;;;;;4998997;28;20088;-59
2022/09/20 09:05:32;;;;;;;3.22;2.78;;;12.60;77.30;;;;;;4998317;28;20034;-59
2022/09/20 09:08:00;;;;;;;3.50;2.50;;;12.70;77.40;;;;;;4998601;28;20062;-59
2022/09/20 09:10:39;;;;;;;4.82;2.63;;;12.60;77.50;;;;;;4998745;28;20113;-59
2022/09/20 09:13:05;;;;;;;7.50;2.90;;;12.70;77.40;;;;;;4999345;28;20398;-59
2022/09/20 09:15:36;;;;;;;6.38;3.20;;;12.80;77.60;;;;;;4998727;28;20677;-60
2022/09/20 09:18:04;;;;;;;4.13;2.97;;;12.80;76.80;;;;;;4998654;28;20030;-58
2022/09/20 09:20:41;;;;;;;4.95;3.00;;;12.90;76.20;;;;;;4999009;28;20124;-61
2022/09/20 09:23:10;;;;;;;4.97;2.65;;;12.90;75.70;;;;;;4997743;28;20501;-58
2022/09/20 09:25:38;;;;;;;5.03;2.97;;;12.90;76.20;;;;;;4997573;28;20241;-58
2022/09/20 09:28:06;;;;;;;4.18;3.05;;;12.90;76.50;;;;;;4996097;28;20621;-61
2022/09/20 09:30:36;;;;;;;5.00;2.95;;;13.00;76.60;;;;;;4994179;28;20054;-60
2022/09/20 09:33:17;;;;;;;5.80;3.78;;;13.10;76.30;;;;;;4979634;28;20441;-60
2022/09/20 09:35:51;;;;;;;4.55;3.03;;;13.10;75.40;;;;;;4981918;28;20066;-59
2022/09/20 09:38:20;;;;;;;4.18;3.55;;;13.10;75.60;;;;;;4981649;28;20084;-58
2022/09/20 09:40:52;;;;;;;5.60;2.85;;;13.20;75.50;;;;;;4980555;28;20092;-59
2022/09/20 09:43:22;;;;;;;4.68;2.85;;;13.10;75.90;;;;;;4980642;28;20049;-59
2022/09/20 09:45:48;;;;;;;6.50;2.83;;;13.20;76.30;;;;;;4982688;28;20045;-60
2022/09/20 09:48:29;;;;;;;4.28;2.60;;;13.30;76.70;;;;;;4979368;28;20935;-60
2022/09/20 09:51:10;;;;;;;3.53;2.15;;;13.40;76.00;;;;;;4980836;28;20046;-60
2022/09/20 09:53:37;;;;;;;4.25;2.17;;;13.50;75.30;;;;;;4980343;28;20030;-60
2022/09/20 09:56:20;;;;;;;4.78;2.28;;;13.60;75.20;;;;;;4978883;28;20046;-61
2022/09/20 09:58:56;;;;;;;4.55;2.90;;;13.70;73.40;;;;;;4980792;28;20039;-59
2022/09/20 10:01:41;;;;;;;6.88;2.33;;;13.70;72.80;;;;;;4987742;28;20564;-59
2022/09/20 10:04:24;;;;;;;6.47;2.00;;;13.80;70.60;;;;;;4999216;28;20033;-60
2022/09/20 10:06:54;;;;;;;5.45;3.38;;;13.90;70.60;;;;;;5000801;28;20099;-59
2022/09/20 10:09:43;;;;;;;3.38;2.17;;;13.90;71.30;;;;;;4999639;28;20069;-58
2022/09/20 10:12:19;;;;;;;3.60;1.50;;;13.90;71.30;;;;;;4998626;28;20038;-60
2022/09/20 10:15:03;;;;;;;2.65;1.60;;;13.90;70.10;;;;;;4999044;28;20034;-58
2022/09/20 10:17:37;;;;;;;2.85;1.95;;;13.90;69.70;;;;;;5000206;28;20387;-60
2022/09/20 10:20:38;;;;;;;3.22;1.67;;;13.90;70.50;;;;;;4986854;28;20074;-60
2022/09/20 10:23:31;;;;;;;6.78;1.92;;;13.90;69.30;;;;;;4978630;28;20409;-61
2022/09/20 10:26:14;;;;;;;3.67;1.60;;;13.90;68.70;;;;;;4979610;28;20041;-60
2022/09/20 10:28:56;;;;;;;3.03;1.50;;;13.90;68.70;;;;;;4998626;28;20034;-61
2022/09/20 10:32:07;;;;;;;1.52;1.15;;;14.00;67.70;;;;;;5000522;28;20058;-59
2022/09/20 10:34:36;;;;;;;4.30;1.00;;;14.00;66.40;;;;;;5014117;28;20128;-60
2022/09/20 10:37:01;;;;;;;3.40;1.00;;;14.10;67.80;;;;;;5002153;28;20026;-59
2022/09/20 10:39:39;;;;;;;2.13;0.95;;;14.00;67.30;;;;;;5001417;28;20398;-59
2022/09/20 10:45:30;;;;;;;3.92;1.00;;;14.00;65.30;;;;;;5001038;28;20096;-60
2022/09/20 10:48:06;;;;;;;2.90;1.23;;;14.00;67.40;;;;;;4999664;28;20034;-60
2022/09/20 10:50:56;;;;;;;5.63;1.25;;;14.00;67.30;;;;;;5001024;28;20092;-60
2022/09/20 10:53:34;;;;;;;2.83;0.90;;;14.10;66.90;;;;;;5000987;28;20041;-59
2022/09/20 10:56:34;;;;;;;3.83;0.90;;;14.10;66.40;;;;;;4999961;28;20053;-61
2022/09/20 10:59:31;;;;;;;3.42;0.95;;;14.10;65.70;;;;;;5012514;28;20038;-60
2022/09/20 11:02:27;;;;;;;4.88;1.00;;;14.10;65.80;;;;;;5000393;28;20502;-59
2022/09/20 11:05:19;;;;;;;3.80;1.20;;;14.10;66.90;;;;;;5000856;28;20505;-60
2022/09/20 11:08:03;;;;;;;2.45;0.77;;;14.20;64.20;;;;;;5001428;28;20568;-61
2022/09/20 11:10:38;;;;;;;2.50;0.98;;;14.20;65.90;;;;;;5000778;28;20494;-62
2022/09/20 11:13:29;;;;;;;3.28;0.90;;;14.20;64.30;;;;;;4999077;28;20034;-62
2022/09/20 11:16:00;;;;;;;2.45;1.00;;;14.20;63.70;;;;;;5000470;28;20406;-62
2022/09/20 11:18:29;;;;;;;5.70;0.90;;;14.20;65.70;;;;;;4999858;28;20076;-59
2022/09/20 11:21:15;;;;;;;1.50;0.60;;;14.20;65.10;;;;;;5000441;28;20513;-60
2022/09/20 11:23:49;;;;;;;2.22;0.52;;;14.20;63.30;;;;;;4999482;28;20121;-59
2022/09/20 11:26:35;;;;;;;4.35;0.70;;;14.20;64.50;;;;;;5000383;28;20030;-60
2022/09/20 11:29:19;;;;;;;2.00;0.50;;;14.20;62.50;;;;;;4997771;28;20053;-61
2022/09/20 11:31:49;;;;;;;1.65;0.60;;;14.20;61.60;;;;;;4997820;28;20037;-60
2022/09/20 11:34:24;;;;;;;1.42;0.70;;;14.20;63.00;;;;;;4997973;28;20037;-61
2022/09/20 11:37:02;;;;;;;2.90;0.80;;;14.30;62.40;;;;;;4998127;28;20121;-59
2022/09/20 11:39:48;;;;;;;3.00;0.80;;;14.30;61.60;;;;;;4998014;28;20038;-60
2022/09/20 11:42:19;;;;;;;1.75;0.70;;;14.30;61.70;;;;;;4996729;28;20046;-59
2022/09/20 11:44:45;;;;;;;2.47;0.60;;;14.40;61.90;;;;;;4997537;28;20042;-60
2022/09/20 11:47:13;;;;;;;2.40;0.93;;;14.40;61.40;;;;;;4999796;28;20110;-59
2022/09/20 11:49:56;;;;;;;2.28;1.30;;;14.50;61.00;;;;;;4997154;28;20405;-60
2022/09/20 11:52:39;;;;;;;2.55;1.02;;;14.40;62.40;;;;;;4997643;28;20471;-61
2022/09/20 11:55:24;;;;;;;2.25;0.50;;;14.50;61.50;;;;;;4998090;28;20026;-60
2022/09/20 11:58:07;;;;;;;;;;;14.50;59.20;;;;;;4999448;28;21080;-62
2022/09/20 12:00:36;;;;;;;1.85;0.77;;;14.60;59.00;;;;;;4996743;28;19917;-61
2022/09/20 12:03:06;;;;;;;2.13;0.60;;;14.60;61.20;;;;;;4998809;28;20042;-61
2022/09/20 12:05:42;;;;;;;2.72;0.70;;;14.60;61.70;;;;;;4995901;28;20042;-61
2022/09/20 12:08:30;;;;;;;2.58;0.68;;;14.70;61.60;;;;;;4999033;28;20573;-60
2022/09/20 12:11:05;;;;;;;3.70;1.00;;;14.70;60.50;;;;;;4996229;28;20138;-60
2022/09/20 12:13:35;;;;;;;4.60;0.70;;;14.80;60.80;;;;;;4998460;28;20455;-59
2022/09/20 12:16:07;;;;;;;2.55;0.70;;;14.90;61.20;;;;;;4998524;28;20038;-59
2022/09/20 12:18:33;;;;;;;0.93;0.57;;;14.90;59.80;;;;;;4996550;28;20096;-61
2022/09/20 12:21:02;;;;;;;2.65;0.70;;;15.00;60.50;;;;;;4997357;28;20041;-61
2022/09/20 12:23:43;;;;;;;2.83;0.80;;;15.00;59.70;;;;;;4996848;28;20502;-61
2022/09/20 12:26:21;;;;;;;2.22;0.68;;;15.10;57.70;;;;;;4998881;28;20059;-61
2022/09/20 12:28:55;;;;;;;4.18;0.70;;;15.10;59.30;;;;;;4997551;28;20153;-59
2022/09/20 12:31:20;;;;;;;2.97;0.77;;;15.20;60.10;;;;;;4997206;28;20104;-61
2022/09/20 12:34:14;;;;;;;4.28;0.82;;;15.30;60.30;;;;;;4996685;28;20042;-60
2022/09/20 12:36:43;;;;;;;1.70;0.60;;;15.30;58.60;;;;;;4997659;28;20046;-61
2022/09/20 12:39:11;;;;;;;5.38;1.00;;;15.30;59.10;;;;;;4998654;28;20041;-60
2022/09/20 12:41:56;;;;;;;2.40;0.73;;;15.30;59.40;;;;;;4996693;28;20043;-61
2022/09/20 12:44:25;;;;;;;;;;;15.30;59.50;;;;;;4997623;28;20524;-60
2022/09/20 12:46:53;;;;;;;3.33;0.85;;;15.30;59.10;;;;;;4996886;28;20541;-61
2022/09/20 12:55:26;;;;;;;4.30;0.90;;;15.10;59.40;;;;;;4997952;28;20037;-60
2022/09/20 12:58:17;;;;;;;2.50;0.80;;;15.30;59.90;;;;;;4996102;28;20034;-61
2022/09/20 13:00:48;;;;;;;1.70;0.57;;;15.30;58.00;;;;;;4996115;28;20566;-61
2022/09/20 13:03:14;;;;;;;2.67;0.82;;;15.30;57.30;;;;;;4996497;28;20133;-60
2022/09/20 13:05:44;;;;;;;3.90;0.88;;;15.30;57.30;;;;;;4997695;28;20046;-61
2022/09/20 13:08:26;;;;;;;0.85;0.55;;;15.20;56.90;;;;;;5001053;28;20514;-60
2022/09/20 13:11:08;;;;;;;1.83;0.80;;;15.20;56.50;;;;;;4999522;28;20457;-60
2022/09/20 13:14:01;;;;;;;2.42;0.80;;;15.20;55.00;;;;;;5001470;28;20064;-61
2022/09/20 13:16:32;;;;;;;2.38;0.80;;;15.00;56.50;;;;;;5002830;28;20034;-59
2022/09/20 13:19:19;;;;;;;2.75;1.00;;;15.10;56.90;;;;;;5000129;28;20034;-59
2022/09/20 13:22:07;;;;;;;3.53;0.80;;;15.10;55.90;;;;;;4999549;28;20051;-61
2022/09/20 13:24:39;;;;;;;2.97;0.80;;;15.10;57.20;;;;;;5000637;28;20041;-61
2022/09/20 13:27:08;;;;;;;1.70;0.80;;;15.10;57.20;;;;;;5002315;28;20584;-59
2022/09/20 13:29:40;;;;;;;1.88;0.75;;;15.10;57.10;;;;;;4998834;28;20045;-59
2022/09/20 13:32:25;;;;;;;1.98;0.80;;;15.10;55.60;;;;;;5001750;28;20077;-60
2022/09/20 13:35:09;;;;;;;;;;;15.10;55.80;;;;;;5001274;28;20113;-61
2022/09/20 13:37:44;;;;;;;3.13;1.00;;;15.10;53.50;;;;;;5001111;28;19924;-61
2022/09/20 13:40:26;;;;;;;2.47;0.90;;;15.10;56.40;;;;;;5001358;28;20120;-61
2022/09/20 13:42:54;;;;;;;4.82;0.98;;;15.00;54.90;;;;;;4999075;28;20038;-61
2022/09/20 13:45:20;;;;;;;2.70;0.70;;;15.00;56.00;;;;;;5000825;28;20033;-62
2022/09/20 13:47:51;;;;;;;2.30;0.70;;;15.10;55.80;;;;;;5001184;28;20181;-60
2022/09/20 13:50:30;;;;;;;3.15;1.10;;;15.10;55.30;;;;;;4999904;28;20488;-61
2022/09/20 13:52:59;;;;;;;3.22;0.82;;;15.10;55.10;;;;;;5000665;28;20105;-61
2022/09/20 13:55:29;;;;;;;1.48;0.80;;;15.20;56.30;;;;;;5000419;28;20089;-60
2022/09/20 13:57:59;;;;;;;0.95;0.55;;;15.20;56.80;;;;;;5000184;28;20045;-61